createdAt,value
2019-03-22T00:00:01.391Z,5.57
2019-03-22T00:00:05.695Z,5.57
2019-03-22T00:00:09.991Z,5.56
2019-03-22T00:00:14.350Z,5.57
2019-03-22T00:00:18.641Z,5.57
2019-03-22T00:00:22.939Z,5.56
2019-03-22T00:00:27.233Z,5.56
2019-03-22T00:00:31.426Z,5.55
2019-03-22T00:00:35.732Z,5.56
2019-03-22T00:00:40.041Z,5.56
2019-03-22T00:00:44.336Z,5.56
2019-03-22T00:00:48.655Z,5.56
2019-03-22T00:00:52.956Z,5.55
2019-03-22T00:00:57.266Z,5.55
2019-03-22T00:01:01.597Z,5.55
2019-03-22T00:01:05.794Z,5.55
2019-03-22T00:01:10.082Z,5.55
2019-03-22T00:01:14.378Z,5.55
2019-03-22T00:01:18.677Z,5.53
2019-03-22T00:01:22.991Z,5.54
2019-03-22T00:01:27.286Z,5.54
2019-03-22T00:01:31.641Z,5.54
2019-03-22T00:01:35.938Z,5.53
2019-03-22T00:01:40.231Z,5.54
2019-03-22T00:01:44.584Z,5.53
2019-03-22T00:01:48.887Z,5.54
2019-03-22T00:01:53.185Z,5.53
2019-03-22T00:01:57.477Z,5.53
2019-03-22T00:02:01.773Z,5.53
2019-03-22T00:02:05.970Z,5.52
2019-03-22T00:02:10.262Z,5.52
2019-03-22T00:02:14.550Z,5.53
2019-03-22T00:02:18.844Z,5.52
2019-03-22T00:02:23.141Z,5.52
2019-03-22T00:02:27.431Z,5.52
2019-03-22T00:02:31.619Z,5.52
2019-03-22T00:02:35.982Z,5.51
2019-03-22T00:02:40.282Z,5.51
2019-03-22T00:02:44.492Z,5.51
2019-03-22T00:02:48.787Z,5.51
2019-03-22T00:02:53.078Z,5.51
2019-03-22T00:02:57.433Z,5.51
2019-03-22T00:03:01.739Z,5.5
2019-03-22T00:03:06.053Z,5.5
2019-03-22T00:03:10.354Z,5.5
2019-03-22T00:03:14.554Z,5.5
2019-03-22T00:03:18.755Z,5.49
2019-03-22T00:03:23.048Z,5.5
2019-03-22T00:03:27.345Z,5.48
2019-03-22T00:03:31.647Z,5.48
2019-03-22T00:03:35.848Z,5.49
2019-03-22T00:03:40.143Z,5.48
2019-03-22T00:03:44.349Z,5.49
2019-03-22T00:03:48.640Z,5.49
2019-03-22T00:03:52.940Z,5.48
2019-03-22T00:03:57.231Z,5.46
2019-03-22T00:04:01.534Z,5.48
2019-03-22T00:04:05.733Z,5.47
2019-03-22T00:04:10.028Z,5.48
2019-03-22T00:04:14.319Z,5.46
2019-03-22T00:04:18.522Z,5.46
2019-03-22T00:04:22.889Z,5.46
2019-03-22T00:04:27.192Z,5.45
2019-03-22T00:04:31.485Z,5.46
2019-03-22T00:04:35.784Z,5.46
2019-03-22T00:04:40.079Z,5.45
2019-03-22T00:04:44.268Z,5.45
2019-03-22T00:04:48.559Z,5.45
2019-03-22T00:04:52.850Z,5.44
2019-03-22T00:04:57.142Z,5.44
2019-03-22T00:05:01.441Z,5.44
2019-03-22T00:05:05.734Z,5.44
2019-03-22T00:05:10.021Z,5.44
2019-03-22T00:05:14.326Z,5.44
2019-03-22T00:05:18.614Z,5.43
2019-03-22T00:05:22.911Z,5.42
2019-03-22T00:05:27.207Z,5.42
2019-03-22T00:05:31.583Z,5.43
2019-03-22T00:05:35.690Z,5.43
2019-03-22T00:05:39.988Z,5.41
2019-03-22T00:05:44.278Z,5.43
2019-03-22T00:05:48.470Z,5.42
2019-03-22T00:05:52.757Z,5.42
2019-03-22T00:05:56.947Z,5.42
2019-03-22T00:06:01.253Z,5.42
2019-03-22T00:06:05.543Z,5.41
2019-03-22T00:06:09.843Z,5.41
2019-03-22T00:06:14.134Z,5.4
2019-03-22T00:06:18.420Z,5.4
2019-03-22T00:06:22.614Z,5.39
2019-03-22T00:06:26.908Z,5.4
2019-03-22T00:06:31.212Z,5.39
2019-03-22T00:06:35.403Z,5.38
2019-03-22T00:06:39.705Z,5.39
2019-03-22T00:06:44.003Z,5.38
2019-03-22T00:06:48.316Z,5.38
2019-03-22T00:06:52.608Z,5.37
2019-03-22T00:06:56.899Z,5.38
2019-03-22T00:07:01.190Z,5.36
2019-03-22T00:07:05.566Z,5.36
2019-03-22T00:07:09.872Z,5.36
2019-03-22T00:07:14.167Z,5.36
2019-03-22T00:07:18.462Z,5.35
2019-03-22T00:07:22.648Z,5.35
2019-03-22T00:07:26.937Z,5.34
2019-03-22T00:07:31.227Z,5.35
2019-03-22T00:07:35.522Z,5.34
2019-03-22T00:07:39.812Z,5.34
2019-03-22T00:07:44.134Z,5.34
2019-03-22T00:07:50.896Z,5.33
2019-03-22T00:07:55.007Z,5.34
2019-03-22T00:07:59.301Z,5.32
2019-03-22T00:08:03.601Z,5.33
2019-03-22T00:08:07.898Z,5.33
2019-03-22T00:08:12.249Z,5.34
2019-03-22T00:08:16.548Z,5.31
2019-03-22T00:08:20.851Z,5.32
2019-03-22T00:08:25.219Z,5.32
2019-03-22T00:08:29.546Z,5.31
2019-03-22T00:08:33.845Z,5.3
2019-03-22T00:08:38.133Z,5.3
2019-03-22T00:08:42.424Z,5.29
2019-03-22T00:08:46.732Z,5.28
2019-03-22T00:08:51.026Z,5.29
2019-03-22T00:08:55.337Z,5.28
2019-03-22T00:08:59.628Z,5.28
2019-03-22T00:09:03.784Z,5.27
2019-03-22T00:09:08.084Z,5.27
2019-03-22T00:09:12.450Z,5.27
2019-03-22T00:09:16.741Z,5.27
2019-03-22T00:09:21.034Z,5.26
2019-03-22T00:09:25.325Z,5.26
2019-03-22T00:09:29.623Z,5.25
2019-03-22T00:09:33.920Z,5.25
2019-03-22T00:09:38.232Z,5.25
2019-03-22T00:09:42.526Z,5.24
2019-03-22T00:09:46.820Z,5.25
2019-03-22T00:09:51.117Z,5.24
2019-03-22T00:09:55.422Z,5.24
2019-03-22T00:09:59.723Z,5.22
2019-03-22T00:10:04.027Z,5.23
2019-03-22T00:10:08.329Z,5.23
2019-03-22T00:10:12.628Z,5.22
2019-03-22T00:10:16.922Z,5.22
2019-03-22T00:10:21.224Z,5.22
2019-03-22T00:10:25.534Z,5.22
2019-03-22T00:10:29.827Z,5.22
2019-03-22T00:10:33.962Z,5.22
2019-03-22T00:10:38.262Z,5.2
2019-03-22T00:10:42.569Z,5.19
2019-03-22T00:10:46.878Z,5.19
2019-03-22T00:10:51.189Z,5.19
2019-03-22T00:10:55.479Z,5.2
2019-03-22T00:10:59.771Z,5.18
2019-03-22T00:11:04.186Z,5.19
2019-03-22T00:11:08.478Z,5.19
2019-03-22T00:11:12.671Z,5.18
2019-03-22T00:11:16.870Z,5.18
2019-03-22T00:11:21.068Z,5.18
2019-03-22T00:11:25.365Z,5.17
2019-03-22T00:11:29.716Z,5.17
2019-03-22T00:11:34.009Z,5.17
2019-03-22T00:11:38.363Z,5.17
2019-03-22T00:11:42.659Z,5.17
2019-03-22T00:11:46.950Z,5.16
2019-03-22T00:11:51.241Z,5.16
2019-03-22T00:11:55.545Z,5.16
2019-03-22T00:11:59.840Z,5.16
2019-03-22T00:12:06.462Z,5.15
2019-03-22T00:12:10.767Z,5.15
2019-03-22T00:12:15.071Z,5.15
2019-03-22T00:12:19.362Z,5.14
2019-03-22T00:12:23.672Z,5.15
2019-03-22T00:12:27.967Z,5.14
2019-03-22T00:12:32.264Z,5.14
2019-03-22T00:12:36.552Z,5.13
2019-03-22T00:12:40.842Z,5.14
2019-03-22T00:12:45.146Z,5.13
2019-03-22T00:12:49.446Z,5.13
2019-03-22T00:12:53.741Z,5.13
2019-03-22T00:12:58.039Z,5.13
2019-03-22T00:13:02.348Z,5.13
2019-03-22T00:13:06.542Z,5.13
2019-03-22T00:13:10.836Z,5.13
2019-03-22T00:13:15.040Z,5.13
2019-03-22T00:13:19.236Z,5.12
2019-03-22T00:13:23.536Z,5.12
2019-03-22T00:13:27.832Z,5.12
2019-03-22T00:13:32.134Z,5.11
2019-03-22T00:13:36.432Z,5.11
2019-03-22T00:13:40.796Z,5.11
2019-03-22T00:13:44.996Z,5.12
2019-03-22T00:13:49.192Z,5.11
2019-03-22T00:13:53.496Z,5.11
2019-03-22T00:13:57.799Z,5.1
2019-03-22T00:14:01.995Z,5.11
2019-03-22T00:14:06.289Z,5.11
2019-03-22T00:14:10.582Z,5.1
2019-03-22T00:14:14.795Z,5.1
2019-03-22T00:14:19.090Z,5.09
2019-03-22T00:14:23.386Z,5.09
2019-03-22T00:14:27.701Z,5.09
2019-03-22T00:14:31.991Z,5.09
2019-03-22T00:14:38.579Z,5.08
2019-03-22T00:14:42.879Z,5.09
2019-03-22T00:14:47.233Z,5.08
2019-03-22T00:14:51.533Z,5.09
2019-03-22T00:14:55.829Z,5.08
2019-03-22T00:15:00.031Z,5.08
2019-03-22T00:15:04.354Z,5.08
2019-03-22T00:15:08.641Z,5.08
2019-03-22T00:15:12.961Z,5.07
2019-03-22T00:15:17.310Z,5.08
2019-03-22T00:15:21.610Z,5.07
2019-03-22T00:15:25.915Z,5.07
2019-03-22T00:15:30.215Z,5.07
2019-03-22T00:15:34.517Z,5.07
2019-03-22T00:15:38.804Z,5.07
2019-03-22T00:15:43.095Z,5.06
2019-03-22T00:15:47.294Z,5.06
2019-03-22T00:15:51.502Z,5.06
2019-03-22T00:15:55.809Z,5.06
2019-03-22T00:16:00.111Z,5.06
2019-03-22T00:16:04.408Z,5.06
2019-03-22T00:16:08.701Z,5.05
2019-03-22T00:16:13.003Z,5.06
2019-03-22T00:16:17.298Z,5.05
2019-03-22T00:16:21.591Z,5.04
2019-03-22T00:16:25.879Z,5.06
2019-03-22T00:16:30.173Z,5.05
2019-03-22T00:16:34.467Z,5.04
2019-03-22T00:16:38.762Z,5.05
2019-03-22T00:16:43.122Z,5.04
2019-03-22T00:16:47.410Z,5.04
2019-03-22T00:16:51.709Z,5.04
2019-03-22T00:16:56.004Z,5.05
2019-03-22T00:17:00.348Z,5.04
2019-03-22T00:17:04.638Z,5.05
2019-03-22T00:17:08.999Z,5.04
2019-03-22T00:17:13.298Z,5.03
2019-03-22T00:17:17.597Z,5.03
2019-03-22T00:17:21.891Z,5.03
2019-03-22T00:17:26.081Z,5.03
2019-03-22T00:17:30.432Z,5.04
2019-03-22T00:17:34.731Z,5.03
2019-03-22T00:17:38.934Z,5.02
2019-03-22T00:17:43.137Z,5.03
2019-03-22T00:17:47.450Z,5.02
2019-03-22T00:17:51.754Z,5.02
2019-03-22T00:17:56.053Z,5.02
2019-03-22T00:18:00.249Z,5.02
2019-03-22T00:18:04.542Z,5.01
2019-03-22T00:18:08.841Z,5.02
2019-03-22T00:18:13.128Z,5.01
2019-03-22T00:18:17.422Z,5.02
2019-03-22T00:18:21.720Z,5.01
2019-03-22T00:18:26.023Z,5.01
2019-03-22T00:18:30.324Z,5
2019-03-22T00:18:34.623Z,5
2019-03-22T00:18:38.811Z,5.01
2019-03-22T00:18:43.105Z,5
2019-03-22T00:18:47.394Z,5
2019-03-22T00:18:51.585Z,5
2019-03-22T00:18:55.889Z,4.99
2019-03-22T00:19:00.195Z,4.99
2019-03-22T00:19:04.435Z,4.99
2019-03-22T00:19:08.739Z,4.99
2019-03-22T00:19:13.046Z,4.99
2019-03-22T00:19:17.344Z,4.99
2019-03-22T00:19:21.537Z,5
2019-03-22T00:19:25.831Z,5
2019-03-22T00:19:30.128Z,4.99
2019-03-22T00:19:34.420Z,4.99
2019-03-22T00:19:38.702Z,4.99
2019-03-22T00:19:43.001Z,4.99
2019-03-22T00:19:47.353Z,4.99
2019-03-22T00:19:51.640Z,4.99
2019-03-22T00:19:55.940Z,4.99
2019-03-22T00:20:00.382Z,4.99
2019-03-22T00:20:04.748Z,4.97
2019-03-22T00:20:08.945Z,4.98
2019-03-22T00:20:13.253Z,4.98
2019-03-22T00:20:17.603Z,4.98
2019-03-22T00:20:21.707Z,4.97
2019-03-22T00:20:26.070Z,4.98
2019-03-22T00:20:30.370Z,4.98
2019-03-22T00:20:34.666Z,4.97
2019-03-22T00:20:38.954Z,4.98
2019-03-22T00:20:43.261Z,4.96
2019-03-22T00:20:47.451Z,4.97
2019-03-22T00:20:51.743Z,4.96
2019-03-22T00:20:55.947Z,4.96
2019-03-22T00:21:00.272Z,4.97
2019-03-22T00:21:04.578Z,4.95
2019-03-22T00:21:08.869Z,4.96
2019-03-22T00:21:13.168Z,4.97
2019-03-22T00:21:17.475Z,4.96
2019-03-22T00:21:21.786Z,4.96
2019-03-22T00:21:25.913Z,4.95
2019-03-22T00:21:30.102Z,4.96
2019-03-22T00:21:34.391Z,4.95
2019-03-22T00:21:38.684Z,4.95
2019-03-22T00:21:42.920Z,4.95
2019-03-22T00:21:47.212Z,4.95
2019-03-22T00:21:51.539Z,4.95
2019-03-22T00:21:55.737Z,4.94
2019-03-22T00:21:59.930Z,4.94
2019-03-22T00:22:04.261Z,4.95
2019-03-22T00:22:08.555Z,4.94
2019-03-22T00:22:12.847Z,4.94
2019-03-22T00:22:17.165Z,4.95
2019-03-22T00:22:21.458Z,4.95
2019-03-22T00:22:25.649Z,4.94
2019-03-22T00:22:29.933Z,4.95
2019-03-22T00:22:34.237Z,4.94
2019-03-22T00:22:38.557Z,4.94
2019-03-22T00:22:42.865Z,4.95
2019-03-22T00:22:47.214Z,4.95
2019-03-22T00:22:51.567Z,4.95
2019-03-22T00:22:55.862Z,4.94
2019-03-22T00:23:00.065Z,4.94
2019-03-22T00:23:04.355Z,4.94
2019-03-22T00:23:08.704Z,4.94
2019-03-22T00:23:12.997Z,4.94
2019-03-22T00:23:17.298Z,4.94
2019-03-22T00:23:21.597Z,4.93
2019-03-22T00:23:25.893Z,4.94
2019-03-22T00:23:30.183Z,4.94
2019-03-22T00:23:34.478Z,4.94
2019-03-22T00:23:38.784Z,4.94
2019-03-22T00:23:43.139Z,4.94
2019-03-22T00:23:47.336Z,4.94
2019-03-22T00:23:51.627Z,4.94
2019-03-22T00:23:55.788Z,4.94
2019-03-22T00:24:00.084Z,4.93
2019-03-22T00:24:04.378Z,4.94
2019-03-22T00:24:08.713Z,4.94
2019-03-22T00:24:13.006Z,4.94
2019-03-22T00:24:17.310Z,4.94
2019-03-22T00:24:21.597Z,4.93
2019-03-22T00:24:25.888Z,4.93
2019-03-22T00:24:30.182Z,4.94
2019-03-22T00:24:34.376Z,4.94
2019-03-22T00:24:38.670Z,4.94
2019-03-22T00:24:42.958Z,4.94
2019-03-22T00:24:47.246Z,4.93
2019-03-22T00:24:51.543Z,4.93
2019-03-22T00:24:55.746Z,4.93
2019-03-22T00:25:00.035Z,4.93
2019-03-22T00:25:04.351Z,4.93
2019-03-22T00:25:08.652Z,4.94
2019-03-22T00:25:12.950Z,4.94
2019-03-22T00:25:17.148Z,4.93
2019-03-22T00:25:21.340Z,4.93
2019-03-22T00:25:25.626Z,4.94
2019-03-22T00:25:29.824Z,4.94
2019-03-22T00:25:34.122Z,4.94
2019-03-22T00:25:38.414Z,4.94
2019-03-22T00:25:42.615Z,4.94
2019-03-22T00:25:46.909Z,4.94
2019-03-22T00:25:51.196Z,4.94
2019-03-22T00:25:55.486Z,4.94
2019-03-22T00:25:59.784Z,4.93
2019-03-22T00:26:04.124Z,4.93
2019-03-22T00:26:08.414Z,4.94
2019-03-22T00:26:12.772Z,4.94
2019-03-22T00:26:17.069Z,4.94
2019-03-22T00:26:21.374Z,4.93
2019-03-22T00:26:25.667Z,4.93
2019-03-22T00:26:32.434Z,4.93
2019-03-22T00:26:36.900Z,4.94
2019-03-22T00:26:41.194Z,4.93
2019-03-22T00:26:45.493Z,4.94
2019-03-22T00:26:49.803Z,4.93
2019-03-22T00:26:54.024Z,4.93
2019-03-22T00:26:58.320Z,4.93
2019-03-22T00:27:02.637Z,4.92
2019-03-22T00:27:19.210Z,4.92
2019-03-22T00:27:23.406Z,4.91
2019-03-22T00:27:27.695Z,4.92
2019-03-22T00:27:31.986Z,4.92
2019-03-22T00:27:36.181Z,4.92
2019-03-22T00:27:40.477Z,4.91
2019-03-22T00:27:44.846Z,4.92
2019-03-22T00:27:49.135Z,4.92
2019-03-22T00:27:53.439Z,4.92
2019-03-22T00:27:57.732Z,4.92
2019-03-22T00:28:01.927Z,4.91
2019-03-22T00:28:06.222Z,4.91
2019-03-22T00:28:10.510Z,4.91
2019-03-22T00:28:14.816Z,4.91
2019-03-22T00:28:19.106Z,4.91
2019-03-22T00:28:23.396Z,4.91
2019-03-22T00:28:27.690Z,4.91
2019-03-22T00:28:31.887Z,4.91
2019-03-22T00:28:36.175Z,4.9
2019-03-22T00:28:40.467Z,4.9
2019-03-22T00:28:44.824Z,4.9
2019-03-22T00:28:49.128Z,4.9
2019-03-22T00:28:53.427Z,4.9
2019-03-22T00:28:57.731Z,4.89
2019-03-22T00:29:01.922Z,4.9
2019-03-22T00:29:06.274Z,4.9
2019-03-22T00:29:10.479Z,4.9
2019-03-22T00:29:14.775Z,4.9
2019-03-22T00:29:18.996Z,4.89
2019-03-22T00:29:23.295Z,4.89
2019-03-22T00:29:27.403Z,4.9
2019-03-22T00:29:31.501Z,4.9
2019-03-22T00:29:35.700Z,4.89
2019-03-22T00:29:39.994Z,4.89
2019-03-22T00:29:44.289Z,4.89
2019-03-22T00:29:48.606Z,4.89
2019-03-22T00:29:52.945Z,4.89
2019-03-22T00:29:57.240Z,4.89
2019-03-22T00:30:01.832Z,4.89
2019-03-22T00:30:06.128Z,4.89
2019-03-22T00:30:10.430Z,4.89
2019-03-22T00:30:14.729Z,4.89
2019-03-22T00:30:19.029Z,4.88
2019-03-22T00:30:23.221Z,4.88
2019-03-22T00:30:27.512Z,4.88
2019-03-22T00:30:31.800Z,4.88
2019-03-22T00:30:36.093Z,4.88
2019-03-22T00:30:40.397Z,4.88
2019-03-22T00:30:44.688Z,4.87
2019-03-22T00:30:48.980Z,4.86
2019-03-22T00:30:53.173Z,4.87
2019-03-22T00:30:57.462Z,4.87
2019-03-22T00:31:01.773Z,4.87
2019-03-22T00:31:06.084Z,4.86
2019-03-22T00:31:10.373Z,4.86
2019-03-22T00:31:14.660Z,4.86
2019-03-22T00:31:18.957Z,4.85
2019-03-22T00:31:23.250Z,4.85
2019-03-22T00:31:27.545Z,4.85
2019-03-22T00:31:31.842Z,4.85
2019-03-22T00:31:36.136Z,4.84
2019-03-22T00:31:40.439Z,4.85
2019-03-22T00:31:44.733Z,4.85
2019-03-22T00:31:49.026Z,4.84
2019-03-22T00:31:53.374Z,4.84
2019-03-22T00:31:57.664Z,4.85
2019-03-22T00:32:02.160Z,4.84
2019-03-22T00:32:06.467Z,4.84
2019-03-22T00:32:10.756Z,4.84
2019-03-22T00:32:15.044Z,4.83
2019-03-22T00:32:19.339Z,4.83
2019-03-22T00:32:23.544Z,4.83
2019-03-22T00:32:27.763Z,4.82
2019-03-22T00:32:32.049Z,4.82
2019-03-22T00:32:36.358Z,4.82
2019-03-22T00:32:40.621Z,4.82
2019-03-22T00:32:44.921Z,4.82
2019-03-22T00:32:49.221Z,4.81
2019-03-22T00:32:56.263Z,4.81
2019-03-22T00:33:00.464Z,4.8
2019-03-22T00:33:04.786Z,4.81
2019-03-22T00:33:09.090Z,4.8
2019-03-22T00:33:13.394Z,4.8
2019-03-22T00:33:17.693Z,4.8
2019-03-22T00:33:21.993Z,4.8
2019-03-22T00:33:26.287Z,4.8
2019-03-22T00:33:30.477Z,4.8
2019-03-22T00:33:34.774Z,4.79
2019-03-22T00:33:39.145Z,4.79
2019-03-22T00:33:43.345Z,4.79
2019-03-22T00:33:47.541Z,4.79
2019-03-22T00:33:51.870Z,4.79
2019-03-22T00:33:56.070Z,4.78
2019-03-22T00:34:00.365Z,4.78
2019-03-22T00:34:04.561Z,4.78
2019-03-22T00:34:08.855Z,4.78
2019-03-22T00:34:13.065Z,4.77
2019-03-22T00:34:17.356Z,4.77
2019-03-22T00:34:21.644Z,4.76
2019-03-22T00:34:25.845Z,4.77
2019-03-22T00:34:30.148Z,4.76
2019-03-22T00:34:34.436Z,4.77
2019-03-22T00:34:38.725Z,4.76
2019-03-22T00:34:43.023Z,4.76
2019-03-22T00:34:47.312Z,4.76
2019-03-22T00:34:51.605Z,4.75
2019-03-22T00:34:55.903Z,4.75
2019-03-22T00:35:00.407Z,4.75
2019-03-22T00:35:04.721Z,4.75
2019-03-22T00:35:09.045Z,4.75
2019-03-22T00:35:13.352Z,4.75
2019-03-22T00:35:17.712Z,4.74
2019-03-22T00:35:21.911Z,4.74
2019-03-22T00:35:26.204Z,4.73
2019-03-22T00:35:30.495Z,4.73
2019-03-22T00:35:34.869Z,4.73
2019-03-22T00:35:39.178Z,4.74
2019-03-22T00:35:43.467Z,4.73
2019-03-22T00:35:47.758Z,4.73
2019-03-22T00:35:52.056Z,4.73
2019-03-22T00:35:56.259Z,4.73
2019-03-22T00:36:00.469Z,4.72
2019-03-22T00:36:04.778Z,4.71
2019-03-22T00:36:09.075Z,4.73
2019-03-22T00:36:13.370Z,4.71
2019-03-22T00:36:17.665Z,4.72
2019-03-22T00:36:21.968Z,4.72
2019-03-22T00:36:26.260Z,4.71
2019-03-22T00:36:30.562Z,4.7
2019-03-22T00:36:34.892Z,4.72
2019-03-22T00:36:39.182Z,4.7
2019-03-22T00:36:43.479Z,4.7
2019-03-22T00:36:47.771Z,4.71
2019-03-22T00:36:52.073Z,4.69
2019-03-22T00:36:56.275Z,4.7
2019-03-22T00:37:00.570Z,4.69
2019-03-22T00:37:04.878Z,4.68
2019-03-22T00:37:09.223Z,4.69
2019-03-22T00:37:13.524Z,4.68
2019-03-22T00:37:17.827Z,4.69
2019-03-22T00:37:22.115Z,4.69
2019-03-22T00:37:26.310Z,4.68
2019-03-22T00:37:30.596Z,4.68
2019-03-22T00:37:34.897Z,4.68
2019-03-22T00:37:39.189Z,4.68
2019-03-22T00:37:43.390Z,4.68
2019-03-22T00:37:47.674Z,4.67
2019-03-22T00:37:51.872Z,4.66
2019-03-22T00:37:56.170Z,4.67
2019-03-22T00:38:00.473Z,4.66
2019-03-22T00:38:04.767Z,4.66
2019-03-22T00:38:09.069Z,4.66
2019-03-22T00:38:13.356Z,4.66
2019-03-22T00:38:17.647Z,4.66
2019-03-22T00:38:21.852Z,4.66
2019-03-22T00:38:26.138Z,4.65
2019-03-22T00:38:30.423Z,4.65
2019-03-22T00:38:34.727Z,4.65
2019-03-22T00:38:39.070Z,4.65
2019-03-22T00:38:43.379Z,4.65
2019-03-22T00:38:47.572Z,4.64
2019-03-22T00:38:51.868Z,4.65
2019-03-22T00:38:56.167Z,4.64
2019-03-22T00:39:00.362Z,4.64
2019-03-22T00:39:04.581Z,4.64
2019-03-22T00:39:08.870Z,4.64
2019-03-22T00:39:13.066Z,4.64
2019-03-22T00:39:17.363Z,4.63
2019-03-22T00:39:21.657Z,4.64
2019-03-22T00:39:25.952Z,4.64
2019-03-22T00:39:30.245Z,4.63
2019-03-22T00:39:34.532Z,4.63
2019-03-22T00:39:38.834Z,4.63
2019-03-22T00:39:43.142Z,4.63
2019-03-22T00:39:47.439Z,4.63
2019-03-22T00:39:51.756Z,4.62
2019-03-22T00:39:56.053Z,4.62
2019-03-22T00:40:00.412Z,4.62
2019-03-22T00:40:04.862Z,4.62
2019-03-22T00:40:09.084Z,4.62
2019-03-22T00:40:13.372Z,4.61
2019-03-22T00:40:17.739Z,4.62
2019-03-22T00:40:21.929Z,4.61
2019-03-22T00:40:26.246Z,4.61
2019-03-22T00:40:30.551Z,4.61
2019-03-22T00:40:34.788Z,4.61
2019-03-22T00:40:39.088Z,4.6
2019-03-22T00:40:43.372Z,4.61
2019-03-22T00:40:47.664Z,4.61
2019-03-22T00:40:51.965Z,4.6
2019-03-22T00:40:56.257Z,4.6
2019-03-22T00:41:00.458Z,4.61
2019-03-22T00:41:04.750Z,4.61
2019-03-22T00:41:09.038Z,4.6
2019-03-22T00:41:13.330Z,4.61
2019-03-22T00:41:17.523Z,4.61
2019-03-22T00:41:21.808Z,4.6
2019-03-22T00:41:25.921Z,4.61
2019-03-22T00:41:30.210Z,4.61
2019-03-22T00:41:34.477Z,4.61
2019-03-22T00:41:38.766Z,4.61
2019-03-22T00:41:43.059Z,4.61
2019-03-22T00:41:47.359Z,4.61
2019-03-22T00:41:51.566Z,4.61
2019-03-22T00:41:55.860Z,4.6
2019-03-22T00:42:00.052Z,4.61
2019-03-22T00:42:04.352Z,4.6
2019-03-22T00:42:08.643Z,4.61
2019-03-22T00:42:12.931Z,4.6
2019-03-22T00:42:17.232Z,4.61
2019-03-22T00:42:21.431Z,4.61
2019-03-22T00:42:25.619Z,4.61
2019-03-22T00:42:29.910Z,4.61
2019-03-22T00:42:34.201Z,4.61
2019-03-22T00:42:38.402Z,4.61
2019-03-22T00:42:42.708Z,4.61
2019-03-22T00:42:47.046Z,4.61
2019-03-22T00:42:51.243Z,4.61
2019-03-22T00:42:55.531Z,4.62
2019-03-22T00:42:59.820Z,4.62
2019-03-22T00:43:04.121Z,4.62
2019-03-22T00:43:08.327Z,4.62
2019-03-22T00:43:12.621Z,4.62
2019-03-22T00:43:16.925Z,4.62
2019-03-22T00:43:21.221Z,4.62
2019-03-22T00:43:25.529Z,4.63
2019-03-22T00:43:29.826Z,4.63
2019-03-22T00:43:34.115Z,4.63
2019-03-22T00:43:38.408Z,4.63
2019-03-22T00:43:42.706Z,4.63
2019-03-22T00:43:47.007Z,4.64
2019-03-22T00:43:51.301Z,4.65
2019-03-22T00:43:55.604Z,4.63
2019-03-22T00:43:59.901Z,4.64
2019-03-22T00:44:04.196Z,4.64
2019-03-22T00:44:08.493Z,4.63
2019-03-22T00:44:12.779Z,4.65
2019-03-22T00:44:16.981Z,4.64
2019-03-22T00:44:21.276Z,4.65
2019-03-22T00:44:25.567Z,4.64
2019-03-22T00:44:29.859Z,4.65
2019-03-22T00:44:34.159Z,4.65
2019-03-22T00:44:38.346Z,4.66
2019-03-22T00:44:42.653Z,4.67
2019-03-22T00:44:46.936Z,4.67
2019-03-22T00:44:51.229Z,4.67
2019-03-22T00:44:55.533Z,4.67
2019-03-22T00:44:59.822Z,4.68
2019-03-22T00:45:04.146Z,4.67
2019-03-22T00:45:08.446Z,4.68
2019-03-22T00:45:12.740Z,4.68
2019-03-22T00:45:17.109Z,4.68
2019-03-22T00:45:21.404Z,4.68
2019-03-22T00:45:25.732Z,4.68
2019-03-22T00:45:30.030Z,4.69
2019-03-22T00:45:34.325Z,4.69
2019-03-22T00:45:38.622Z,4.69
2019-03-22T00:45:42.923Z,4.69
2019-03-22T00:45:47.206Z,4.68
2019-03-22T00:45:51.401Z,4.69
2019-03-22T00:45:55.719Z,4.69
2019-03-22T00:46:00.009Z,4.69
2019-03-22T00:46:04.310Z,4.69
2019-03-22T00:46:08.602Z,4.69
2019-03-22T00:46:12.896Z,4.7
2019-03-22T00:46:17.185Z,4.7
2019-03-22T00:46:21.476Z,4.71
2019-03-22T00:46:25.769Z,4.7
2019-03-22T00:46:30.073Z,4.71
2019-03-22T00:46:34.355Z,4.71
2019-03-22T00:46:38.649Z,4.72
2019-03-22T00:46:42.950Z,4.71
2019-03-22T00:46:47.242Z,4.72
2019-03-22T00:46:51.559Z,4.71
2019-03-22T00:46:55.861Z,4.72
2019-03-22T00:47:00.190Z,4.72
2019-03-22T00:47:04.382Z,4.72
2019-03-22T00:47:08.575Z,4.72
2019-03-22T00:47:12.881Z,4.72
2019-03-22T00:47:17.170Z,4.73
2019-03-22T00:47:21.274Z,4.73
2019-03-22T00:47:25.473Z,4.73
2019-03-22T00:47:29.765Z,4.73
2019-03-22T00:47:33.970Z,4.73
2019-03-22T00:47:38.268Z,4.74
2019-03-22T00:47:42.474Z,4.73
2019-03-22T00:47:46.767Z,4.74
2019-03-22T00:47:51.056Z,4.74
2019-03-22T00:47:55.414Z,4.74
2019-03-22T00:47:59.703Z,4.75
2019-03-22T00:48:03.990Z,4.74
2019-03-22T00:48:08.193Z,4.74
2019-03-22T00:48:12.489Z,4.74
2019-03-22T00:48:16.782Z,4.74
2019-03-22T00:48:21.073Z,4.74
2019-03-22T00:48:27.831Z,4.73
2019-03-22T00:48:32.127Z,4.74
2019-03-22T00:48:36.435Z,4.75
2019-03-22T00:48:40.730Z,4.73
2019-03-22T00:48:45.029Z,4.74
2019-03-22T00:48:49.320Z,4.74
2019-03-22T00:48:53.616Z,4.75
2019-03-22T00:48:57.731Z,4.74
2019-03-22T00:49:01.935Z,4.74
2019-03-22T00:49:06.235Z,4.75
2019-03-22T00:49:10.526Z,4.75
2019-03-22T00:49:14.820Z,4.76
2019-03-22T00:49:19.112Z,4.75
2019-03-22T00:49:23.403Z,4.76
2019-03-22T00:49:27.629Z,4.75
2019-03-22T00:49:31.920Z,4.76
2019-03-22T00:49:36.114Z,4.77
2019-03-22T00:49:40.398Z,4.76
2019-03-22T00:49:44.692Z,4.76
2019-03-22T00:49:49.032Z,4.76
2019-03-22T00:49:53.367Z,4.77
2019-03-22T00:49:57.667Z,4.77
2019-03-22T00:50:02.040Z,4.77
2019-03-22T00:50:06.358Z,4.77
2019-03-22T00:50:10.650Z,4.77
2019-03-22T00:50:14.863Z,4.77
2019-03-22T00:50:19.233Z,4.77
2019-03-22T00:50:23.525Z,4.77
2019-03-22T00:50:27.725Z,4.77
2019-03-22T00:50:32.025Z,4.76
2019-03-22T00:50:36.228Z,4.77
2019-03-22T00:50:40.526Z,4.77
2019-03-22T00:50:44.816Z,4.77
2019-03-22T00:50:49.106Z,4.77
2019-03-22T00:50:53.394Z,4.77
2019-03-22T00:50:57.687Z,4.77
2019-03-22T00:51:01.947Z,4.77
2019-03-22T00:51:06.277Z,4.77
2019-03-22T00:51:10.573Z,4.77
2019-03-22T00:51:14.787Z,4.77
2019-03-22T00:51:19.085Z,4.77
2019-03-22T00:51:23.378Z,4.77
2019-03-22T00:51:27.670Z,4.77
2019-03-22T00:51:31.960Z,4.77
2019-03-22T00:51:36.290Z,4.77
2019-03-22T00:51:40.582Z,4.76
2019-03-22T00:51:44.873Z,4.77
2019-03-22T00:51:49.167Z,4.77
2019-03-22T00:51:53.516Z,4.77
2019-03-22T00:51:57.824Z,4.76
2019-03-22T00:52:02.120Z,4.76
2019-03-22T00:52:06.440Z,4.76
2019-03-22T00:52:10.764Z,4.76
2019-03-22T00:52:15.056Z,4.77
2019-03-22T00:52:19.258Z,4.77
2019-03-22T00:52:23.565Z,4.77
2019-03-22T00:52:27.860Z,4.76
2019-03-22T00:52:32.156Z,4.76
2019-03-22T00:52:36.452Z,4.76
2019-03-22T00:52:40.651Z,4.77
2019-03-22T00:52:44.950Z,4.76
2019-03-22T00:52:49.247Z,4.76
2019-03-22T00:52:53.570Z,4.77
2019-03-22T00:52:57.866Z,4.77
2019-03-22T00:53:02.068Z,4.76
2019-03-22T00:53:06.386Z,4.77
2019-03-22T00:53:10.651Z,4.76
2019-03-22T00:53:14.940Z,4.76
2019-03-22T00:53:19.239Z,4.76
2019-03-22T00:53:23.533Z,4.75
2019-03-22T00:53:27.830Z,4.76
2019-03-22T00:53:32.116Z,4.75
2019-03-22T00:53:36.413Z,4.76
2019-03-22T00:53:40.714Z,4.74
2019-03-22T00:53:44.918Z,4.75
2019-03-22T00:53:49.205Z,4.75
2019-03-22T00:53:53.492Z,4.75
2019-03-22T00:53:57.779Z,4.75
2019-03-22T00:54:02.118Z,4.74
2019-03-22T00:54:06.439Z,4.75
2019-03-22T00:54:10.748Z,4.74
2019-03-22T00:54:15.083Z,4.74
2019-03-22T00:54:19.290Z,4.74
2019-03-22T00:54:23.589Z,4.75
2019-03-22T00:54:27.888Z,4.75
2019-03-22T00:54:32.193Z,4.74
2019-03-22T00:54:36.490Z,4.74
2019-03-22T00:54:40.794Z,4.74
2019-03-22T00:54:45.086Z,4.73
2019-03-22T00:54:49.379Z,4.73
2019-03-22T00:54:53.677Z,4.74
2019-03-22T00:54:57.963Z,4.74
2019-03-22T00:55:02.446Z,4.73
2019-03-22T00:55:06.752Z,4.73
2019-03-22T00:55:10.967Z,4.74
2019-03-22T00:55:15.182Z,4.73
2019-03-22T00:55:19.479Z,4.72
2019-03-22T00:55:23.781Z,4.72
2019-03-22T00:55:27.972Z,4.73
2019-03-22T00:55:32.269Z,4.72
2019-03-22T00:55:36.465Z,4.72
2019-03-22T00:55:40.762Z,4.72
2019-03-22T00:55:45.054Z,4.72
2019-03-22T00:55:49.161Z,4.72
2019-03-22T00:55:53.466Z,4.72
2019-03-22T00:55:57.566Z,4.72
2019-03-22T00:56:01.908Z,4.7
2019-03-22T00:56:06.210Z,4.71
2019-03-22T00:56:10.509Z,4.71
2019-03-22T00:56:14.708Z,4.7
2019-03-22T00:56:19.020Z,4.71
2019-03-22T00:56:23.311Z,4.71
2019-03-22T00:56:27.614Z,4.71
2019-03-22T00:56:31.911Z,4.69
2019-03-22T00:56:36.016Z,4.69
2019-03-22T00:56:40.305Z,4.69
2019-03-22T00:56:44.616Z,4.7
2019-03-22T00:56:48.920Z,4.7
2019-03-22T00:56:53.218Z,4.68
2019-03-22T00:56:57.427Z,4.7
2019-03-22T00:57:01.730Z,4.7
2019-03-22T00:57:06.027Z,4.7
2019-03-22T00:57:10.340Z,4.69
2019-03-22T00:57:14.651Z,4.7
2019-03-22T00:57:30.463Z,4.7
2019-03-22T00:57:34.703Z,4.69
2019-03-22T00:57:39.015Z,4.69
2019-03-22T00:57:43.319Z,4.68
2019-03-22T00:57:47.620Z,4.68
2019-03-22T00:57:51.918Z,4.68